sensor_id;sensor_type;location;lat;lon;timestamp;pressure;altitude;pressure_sealevel;temperature
69857;BMP280;57147;53.582;10.112;2023-03-05T00:01:37;101448.84;;;2.29
69857;BMP280;57147;53.582;10.112;2023-03-05T00:06:37;101458.09;;;2.31
69857;BMP280;57147;53.582;10.112;2023-03-05T00:11:38;101427.09;;;2.28
69857;BMP280;57147;53.582;10.112;2023-03-05T00:16:42;101427.09;;;2.28
69857;BMP280;57147;53.582;10.112;2023-03-05T00:21:43;101444.88;;;2.26
69857;BMP280;57147;53.582;10.112;2023-03-05T00:26:44;101434.44;;;2.20
69857;BMP280;57147;53.582;10.112;2023-03-05T00:31:48;101447.59;;;2.31
69857;BMP280;57147;53.582;10.112;2023-03-05T00:36:50;101452.63;;;2.33
69857;BMP280;57147;53.582;10.112;2023-03-05T00:41:51;101450.78;;;2.40
69857;BMP280;57147;53.582;10.112;2023-03-05T00:46:54;101442.81;;;2.28
69857;BMP280;57147;53.582;10.112;2023-03-05T00:51:55;101433.69;;;2.06
69857;BMP280;57147;53.582;10.112;2023-03-05T00:56:56;101386.19;;;1.71
69857;BMP280;57147;53.582;10.112;2023-03-05T01:01:59;101378.53;;;1.69
69857;BMP280;57147;53.582;10.112;2023-03-05T01:07:00;101360.75;;;1.78
69857;BMP280;57147;53.582;10.112;2023-03-05T01:12:00;101341.81;;;1.44
69857;BMP280;57147;53.582;10.112;2023-03-05T01:17:04;101318.28;;;1.06
69857;BMP280;57147;53.582;10.112;2023-03-05T01:22:04;101333.31;;;1.18
69857;BMP280;57147;53.582;10.112;2023-03-05T01:27:05;101332.31;;;1.12
69857;BMP280;57147;53.582;10.112;2023-03-05T01:32:08;101348.50;;;0.89
69857;BMP280;57147;53.582;10.112;2023-03-05T01:37:09;101362.56;;;0.95
69857;BMP280;57147;53.582;10.112;2023-03-05T01:42:10;101355.50;;;1.02
69857;BMP280;57147;53.582;10.112;2023-03-05T01:47:13;101361.38;;;0.84
69857;BMP280;57147;53.582;10.112;2023-03-05T01:52:15;101345.31;;;0.80
69857;BMP280;57147;53.582;10.112;2023-03-05T01:57:20;101346.91;;;0.88
69857;BMP280;57147;53.582;10.112;2023-03-05T02:02:25;101342.84;;;0.99
69857;BMP280;57147;53.582;10.112;2023-03-05T02:07:25;101364.03;;;0.58
69857;BMP280;57147;53.582;10.112;2023-03-05T02:12:26;101387.16;;;0.34
69857;BMP280;57147;53.582;10.112;2023-03-05T02:17:30;101421.94;;;0.55
69857;BMP280;57147;53.582;10.112;2023-03-05T02:22:33;101352.59;;;0.19
69857;BMP280;57147;53.582;10.112;2023-03-05T02:27:34;101370.69;;;0.47
69857;BMP280;57147;53.582;10.112;2023-03-05T02:32:34;101366.69;;;0.44
69857;BMP280;57147;53.582;10.112;2023-03-05T02:37:38;101318.00;;;0.57
69857;BMP280;57147;53.582;10.112;2023-03-05T02:42:39;101279.81;;;0.56
69857;BMP280;57147;53.582;10.112;2023-03-05T02:47:39;101273.84;;;0.49
69857;BMP280;57147;53.582;10.112;2023-03-05T02:52:43;101278.00;;;0.63
69857;BMP280;57147;53.582;10.112;2023-03-05T02:57:43;101253.69;;;0.62
69857;BMP280;57147;53.582;10.112;2023-03-05T03:02:44;101244.91;;;0.43
69857;BMP280;57147;53.582;10.112;2023-03-05T03:07:47;101258.13;;;0.55
69857;BMP280;57147;53.582;10.112;2023-03-05T03:12:48;101256.75;;;0.53
69857;BMP280;57147;53.582;10.112;2023-03-05T03:17:49;101264.59;;;0.53
69857;BMP280;57147;53.582;10.112;2023-03-05T03:22:52;101239.47;;;0.52
69857;BMP280;57147;53.582;10.112;2023-03-05T03:27:53;101228.41;;;0.50
69857;BMP280;57147;53.582;10.112;2023-03-05T03:32:54;101245.19;;;0.67
69857;BMP280;57147;53.582;10.112;2023-03-05T03:37:57;101234.81;;;0.54
69857;BMP280;57147;53.582;10.112;2023-03-05T03:42:58;101226.75;;;0.62
69857;BMP280;57147;53.582;10.112;2023-03-05T03:47:58;101217.13;;;0.56
69857;BMP280;57147;53.582;10.112;2023-03-05T03:53:02;101230.06;;;0.37
69857;BMP280;57147;53.582;10.112;2023-03-05T03:58:02;101205.56;;;0.25
69857;BMP280;57147;53.582;10.112;2023-03-05T04:03:03;101214.38;;;0.37
69857;BMP280;57147;53.582;10.112;2023-03-05T04:08:07;101206.91;;;0.47
69857;BMP280;57147;53.582;10.112;2023-03-05T04:13:07;101205.88;;;0.55
69857;BMP280;57147;53.582;10.112;2023-03-05T04:18:09;101200.06;;;0.53
69857;BMP280;57147;53.582;10.112;2023-03-05T04:23:13;101197.81;;;0.57
69857;BMP280;57147;53.582;10.112;2023-03-05T04:28:24;101187.78;;;0.54
69857;BMP280;57147;53.582;10.112;2023-03-05T04:33:27;101189.66;;;0.46
69857;BMP280;57147;53.582;10.112;2023-03-05T04:38:33;101183.63;;;0.39
69857;BMP280;57147;53.582;10.112;2023-03-05T04:43:38;101170.19;;;0.29
69857;BMP280;57147;53.582;10.112;2023-03-05T04:48:39;101177.41;;;0.40
69857;BMP280;57147;53.582;10.112;2023-03-05T04:53:42;101165.38;;;0.33
69857;BMP280;57147;53.582;10.112;2023-03-05T04:58:43;101161.94;;;0.32
69857;BMP280;57147;53.582;10.112;2023-03-05T05:03:44;101151.28;;;0.40
69857;BMP280;57147;53.582;10.112;2023-03-05T05:08:48;101148.03;;;0.52
69857;BMP280;57147;53.582;10.112;2023-03-05T05:13:49;101131.91;;;0.55
69857;BMP280;57147;53.582;10.112;2023-03-05T05:18:50;101118.44;;;0.58
69857;BMP280;57147;53.582;10.112;2023-03-05T05:23:53;101116.13;;;0.74
69857;BMP280;57147;53.582;10.112;2023-03-05T05:28:54;101102.06;;;0.69
69857;BMP280;57147;53.582;10.112;2023-03-05T05:33:55;101100.41;;;0.81
69857;BMP280;57147;53.582;10.112;2023-03-05T05:38:58;101100.16;;;0.89
69857;BMP280;57147;53.582;10.112;2023-03-05T05:43:58;101105.47;;;1.07
69857;BMP280;57147;53.582;10.112;2023-03-05T05:48:59;101079.25;;;0.89
69857;BMP280;57147;53.582;10.112;2023-03-05T05:54:03;101095.59;;;0.78
69857;BMP280;57147;53.582;10.112;2023-03-05T05:59:03;101089.56;;;0.77
69857;BMP280;57147;53.582;10.112;2023-03-05T06:04:04;101085.91;;;0.85
69857;BMP280;57147;53.582;10.112;2023-03-05T06:09:07;101074.69;;;0.78
69857;BMP280;57147;53.582;10.112;2023-03-05T06:14:09;101084.69;;;0.88
69857;BMP280;57147;53.582;10.112;2023-03-05T06:19:11;101066.41;;;0.81
69857;BMP280;57147;53.582;10.112;2023-03-05T06:24:15;101062.88;;;1.00
69857;BMP280;57147;53.582;10.112;2023-03-05T06:29:16;101066.84;;;1.09
69857;BMP280;57147;53.582;10.112;2023-03-05T06:34:17;101063.41;;;1.34
69857;BMP280;57147;53.582;10.112;2023-03-05T06:39:20;101049.09;;;1.11
69857;BMP280;57147;53.582;10.112;2023-03-05T06:44:21;101066.38;;;1.12
69857;BMP280;57147;53.582;10.112;2023-03-05T06:49:21;101062.34;;;1.17
69857;BMP280;57147;53.582;10.112;2023-03-05T06:54:25;101062.75;;;1.13
69857;BMP280;57147;53.582;10.112;2023-03-05T06:59:25;101060.69;;;1.22
69857;BMP280;57147;53.582;10.112;2023-03-05T07:04:26;101056.03;;;0.99
69857;BMP280;57147;53.582;10.112;2023-03-05T07:09:29;101065.31;;;0.95
69857;BMP280;57147;53.582;10.112;2023-03-05T07:14:30;101053.31;;;1.12
69857;BMP280;57147;53.582;10.112;2023-03-05T07:19:31;101051.06;;;1.16
69857;BMP280;57147;53.582;10.112;2023-03-05T07:24:34;101057.59;;;1.32
69857;BMP280;57147;53.582;10.112;2023-03-05T07:29:35;101054.78;;;1.45
69857;BMP280;57147;53.582;10.112;2023-03-05T07:34:36;101033.44;;;1.48
69857;BMP280;57147;53.582;10.112;2023-03-05T07:39:40;101046.25;;;1.56
69857;BMP280;57147;53.582;10.112;2023-03-05T07:44:40;101041.06;;;1.86
69857;BMP280;57147;53.582;10.112;2023-03-05T07:49:41;101038.09;;;1.82
69857;BMP280;57147;53.582;10.112;2023-03-05T07:54:44;101035.63;;;1.88
69857;BMP280;57147;53.582;10.112;2023-03-05T07:59:45;101042.28;;;1.47
69857;BMP280;57147;53.582;10.112;2023-03-05T08:04:46;101046.69;;;1.71
69857;BMP280;57147;53.582;10.112;2023-03-05T08:09:49;101026.88;;;1.75
69857;BMP280;57147;53.582;10.112;2023-03-05T08:14:49;101042.16;;;1.97
69857;BMP280;57147;53.582;10.112;2023-03-05T08:19:50;101046.69;;;1.90
69857;BMP280;57147;53.582;10.112;2023-03-05T08:24:54;101030.41;;;2.29
69857;BMP280;57147;53.582;10.112;2023-03-05T08:29:54;101015.25;;;1.90
69857;BMP280;57147;53.582;10.112;2023-03-05T08:34:55;101027.16;;;2.04
69857;BMP280;57147;53.582;10.112;2023-03-05T08:39:59;101024.28;;;1.75
69857;BMP280;57147;53.582;10.112;2023-03-05T08:45:00;101023.25;;;1.95
69857;BMP280;57147;53.582;10.112;2023-03-05T08:50:00;101045.16;;;2.42
69857;BMP280;57147;53.582;10.112;2023-03-05T08:55:05;101044.06;;;2.61
69857;BMP280;57147;53.582;10.112;2023-03-05T09:00:07;101058.28;;;2.53
69857;BMP280;57147;53.582;10.112;2023-03-05T09:05:09;101041.81;;;2.35
69857;BMP280;57147;53.582;10.112;2023-03-05T09:10:13;101031.09;;;2.66
69857;BMP280;57147;53.582;10.112;2023-03-05T09:15:14;101050.47;;;2.65
69857;BMP280;57147;53.582;10.112;2023-03-05T09:20:15;101028.09;;;2.51
69857;BMP280;57147;53.582;10.112;2023-03-05T09:25:18;101053.53;;;2.50
69857;BMP280;57147;53.582;10.112;2023-03-05T09:30:20;101024.91;;;2.49
69857;BMP280;57147;53.582;10.112;2023-03-05T09:35:21;101069.41;;;2.67
69857;BMP280;57147;53.582;10.112;2023-03-05T09:40:24;101061.44;;;3.32
69857;BMP280;57147;53.582;10.112;2023-03-05T09:45:34;101060.56;;;3.78
69857;BMP280;57147;53.582;10.112;2023-03-05T09:50:39;101060.44;;;2.98
69857;BMP280;57147;53.582;10.112;2023-03-05T09:55:45;101044.34;;;2.71
69857;BMP280;57147;53.582;10.112;2023-03-05T10:00:49;101035.00;;;2.22
69857;BMP280;57147;53.582;10.112;2023-03-05T10:06:01;101051.47;;;2.52
69857;BMP280;57147;53.582;10.112;2023-03-05T10:16:29;101054.69;;;2.66
69857;BMP280;57147;53.582;10.112;2023-03-05T10:21:37;101037.84;;;2.97
69857;BMP280;57147;53.582;10.112;2023-03-05T10:26:57;101048.13;;;3.10
69857;BMP280;57147;53.582;10.112;2023-03-05T10:32:06;101028.38;;;2.96
69857;BMP280;57147;53.582;10.112;2023-03-05T10:37:32;101019.03;;;2.35
69857;BMP280;57147;53.582;10.112;2023-03-05T10:42:48;100999.94;;;2.46
69857;BMP280;57147;53.582;10.112;2023-03-05T10:47:53;101003.75;;;2.97
69857;BMP280;57147;53.582;10.112;2023-03-05T10:53:06;101012.25;;;3.51
69857;BMP280;57147;53.582;10.112;2023-03-05T10:58:14;101008.59;;;3.52
69857;BMP280;57147;53.582;10.112;2023-03-05T11:03:15;100998.69;;;3.31
69857;BMP280;57147;53.582;10.112;2023-03-05T11:08:40;101006.19;;;3.39
69857;BMP280;57147;53.582;10.112;2023-03-05T11:13:51;101001.56;;;3.98
69857;BMP280;57147;53.582;10.112;2023-03-05T11:19:18;101014.13;;;3.96
69857;BMP280;57147;53.582;10.112;2023-03-05T11:24:19;101002.22;;;3.76
69857;BMP280;57147;53.582;10.112;2023-03-05T11:29:24;101013.00;;;3.91
69857;BMP280;57147;53.582;10.112;2023-03-05T11:34:29;101012.94;;;4.03
69857;BMP280;57147;53.582;10.112;2023-03-05T11:39:32;101008.19;;;3.72
69857;BMP280;57147;53.582;10.112;2023-03-05T11:44:44;100965.63;;;3.58
69857;BMP280;57147;53.582;10.112;2023-03-05T11:49:49;100963.03;;;4.20
69857;BMP280;57147;53.582;10.112;2023-03-05T11:54:55;100947.75;;;4.34
69857;BMP280;57147;53.582;10.112;2023-03-05T12:00:03;100943.28;;;4.01
69857;BMP280;57147;53.582;10.112;2023-03-05T12:05:05;100930.38;;;4.49
69857;BMP280;57147;53.582;10.112;2023-03-05T12:10:13;100931.75;;;5.17
69857;BMP280;57147;53.582;10.112;2023-03-05T12:15:48;100938.84;;;5.38
69857;BMP280;57147;53.582;10.112;2023-03-05T12:21:01;100941.50;;;5.17
69857;BMP280;57147;53.582;10.112;2023-03-05T12:26:02;100938.66;;;5.77
69857;BMP280;57147;53.582;10.112;2023-03-05T12:31:25;100929.72;;;6.47
69857;BMP280;57147;53.582;10.112;2023-03-05T12:36:35;100939.84;;;6.70
69857;BMP280;57147;53.582;10.112;2023-03-05T12:41:36;100939.06;;;6.23
69857;BMP280;57147;53.582;10.112;2023-03-05T12:46:40;100941.63;;;5.54
69857;BMP280;57147;53.582;10.112;2023-03-05T12:51:41;100926.72;;;5.37
69857;BMP280;57147;53.582;10.112;2023-03-05T12:56:43;100924.16;;;5.43
69857;BMP280;57147;53.582;10.112;2023-03-05T13:01:51;100943.88;;;4.75
69857;BMP280;57147;53.582;10.112;2023-03-05T13:06:59;100939.91;;;4.55
69857;BMP280;57147;53.582;10.112;2023-03-05T13:12:02;100929.25;;;4.45
69857;BMP280;57147;53.582;10.112;2023-03-05T13:17:30;100919.88;;;4.49
69857;BMP280;57147;53.582;10.112;2023-03-05T13:22:32;100915.66;;;4.15
69857;BMP280;57147;53.582;10.112;2023-03-05T13:27:32;100909.81;;;4.46
69857;BMP280;57147;53.582;10.112;2023-03-05T13:32:36;100900.22;;;4.35
69857;BMP280;57147;53.582;10.112;2023-03-05T13:37:37;100881.25;;;4.33
69857;BMP280;57147;53.582;10.112;2023-03-05T13:42:38;100868.91;;;4.34
69857;BMP280;57147;53.582;10.112;2023-03-05T13:47:51;100881.22;;;4.50
69857;BMP280;57147;53.582;10.112;2023-03-05T13:52:51;100869.28;;;4.42
69857;BMP280;57147;53.582;10.112;2023-03-05T13:57:52;100850.91;;;4.86
69857;BMP280;57147;53.582;10.112;2023-03-05T14:02:57;100863.31;;;4.69
69857;BMP280;57147;53.582;10.112;2023-03-05T14:07:59;100855.59;;;4.84
69857;BMP280;57147;53.582;10.112;2023-03-05T14:13:03;100855.16;;;4.92
69857;BMP280;57147;53.582;10.112;2023-03-05T14:18:19;100831.50;;;4.70
69857;BMP280;57147;53.582;10.112;2023-03-05T14:23:25;100803.22;;;4.39
69857;BMP280;57147;53.582;10.112;2023-03-05T14:28:27;100848.31;;;4.47
69857;BMP280;57147;53.582;10.112;2023-03-05T14:33:32;100810.56;;;4.53
69857;BMP280;57147;53.582;10.112;2023-03-05T14:38:36;100791.72;;;4.61
69857;BMP280;57147;53.582;10.112;2023-03-05T14:43:38;100778.25;;;4.36
69857;BMP280;57147;53.582;10.112;2023-03-05T14:48:41;100807.47;;;4.61
69857;BMP280;57147;53.582;10.112;2023-03-05T14:53:44;100802.72;;;4.58
69857;BMP280;57147;53.582;10.112;2023-03-05T14:58:45;100786.63;;;4.33
69857;BMP280;57147;53.582;10.112;2023-03-05T15:03:51;100791.03;;;4.49
69857;BMP280;57147;53.582;10.112;2023-03-05T15:08:52;100773.34;;;4.23
69857;BMP280;57147;53.582;10.112;2023-03-05T15:13:53;100782.50;;;3.99
69857;BMP280;57147;53.582;10.112;2023-03-05T15:18:57;100760.94;;;3.80
69857;BMP280;57147;53.582;10.112;2023-03-05T15:23:58;100771.06;;;3.71
69857;BMP280;57147;53.582;10.112;2023-03-05T15:28:58;100742.72;;;3.73
69857;BMP280;57147;53.582;10.112;2023-03-05T15:34:02;100739.56;;;3.71
69857;BMP280;57147;53.582;10.112;2023-03-05T15:39:02;100704.78;;;3.64
69857;BMP280;57147;53.582;10.112;2023-03-05T15:44:04;100665.25;;;3.37
69857;BMP280;57147;53.582;10.112;2023-03-05T15:49:08;100663.38;;;3.33
69857;BMP280;57147;53.582;10.112;2023-03-05T15:54:08;100689.44;;;3.22
69857;BMP280;57147;53.582;10.112;2023-03-05T15:59:11;100673.06;;;3.15
69857;BMP280;57147;53.582;10.112;2023-03-05T16:04:15;100670.28;;;3.05
69857;BMP280;57147;53.582;10.112;2023-03-05T16:09:16;100661.41;;;3.06
69857;BMP280;57147;53.582;10.112;2023-03-05T16:14:22;100645.25;;;3.14
69857;BMP280;57147;53.582;10.112;2023-03-05T16:19:26;100628.88;;;3.07
69857;BMP280;57147;53.582;10.112;2023-03-05T16:24:27;100611.25;;;3.03
69857;BMP280;57147;53.582;10.112;2023-03-05T16:29:28;100636.91;;;3.01
69857;BMP280;57147;53.582;10.112;2023-03-05T16:34:31;100665.44;;;2.97
69857;BMP280;57147;53.582;10.112;2023-03-05T16:39:32;100651.13;;;2.88
69857;BMP280;57147;53.582;10.112;2023-03-05T16:44:33;100655.44;;;2.94
69857;BMP280;57147;53.582;10.112;2023-03-05T16:49:36;100644.84;;;2.89
69857;BMP280;57147;53.582;10.112;2023-03-05T16:54:37;100656.38;;;2.88
69857;BMP280;57147;53.582;10.112;2023-03-05T16:59:37;100636.59;;;2.52
69857;BMP280;57147;53.582;10.112;2023-03-05T17:04:41;100632.41;;;2.39
69857;BMP280;57147;53.582;10.112;2023-03-05T17:09:42;100604.50;;;2.05
69857;BMP280;57147;53.582;10.112;2023-03-05T17:14:42;100590.56;;;1.99
69857;BMP280;57147;53.582;10.112;2023-03-05T17:19:45;100567.22;;;1.98
69857;BMP280;57147;53.582;10.112;2023-03-05T17:24:46;100574.88;;;1.76
69857;BMP280;57147;53.582;10.112;2023-03-05T17:29:47;100561.59;;;1.54
69857;BMP280;57147;53.582;10.112;2023-03-05T17:34:53;100570.91;;;1.50
69857;BMP280;57147;53.582;10.112;2023-03-05T17:39:57;100572.72;;;1.49
69857;BMP280;57147;53.582;10.112;2023-03-05T17:44:57;100581.97;;;1.29
69857;BMP280;57147;53.582;10.112;2023-03-05T17:50:01;100627.66;;;1.49
69857;BMP280;57147;53.582;10.112;2023-03-05T17:55:02;100590.72;;;1.23
69857;BMP280;57147;53.582;10.112;2023-03-05T18:00:04;100589.47;;;1.13
69857;BMP280;57147;53.582;10.112;2023-03-05T18:05:08;100614.28;;;1.23
69857;BMP280;57147;53.582;10.112;2023-03-05T18:10:12;100642.91;;;1.18
69857;BMP280;57147;53.582;10.112;2023-03-05T18:15:14;100639.22;;;0.95
69857;BMP280;57147;53.582;10.112;2023-03-05T18:20:25;100640.94;;;1.01
69857;BMP280;57147;53.582;10.112;2023-03-05T18:25:29;100556.16;;;0.97
69857;BMP280;57147;53.582;10.112;2023-03-05T18:30:31;100451.34;;;1.10
69857;BMP280;57147;53.582;10.112;2023-03-05T18:35:36;100556.84;;;1.04
69857;BMP280;57147;53.582;10.112;2023-03-05T18:40:38;100652.72;;;0.92
69857;BMP280;57147;53.582;10.112;2023-03-05T18:45:39;100841.66;;;0.99
69857;BMP280;57147;53.582;10.112;2023-03-05T18:50:43;100821.31;;;0.83
69857;BMP280;57147;53.582;10.112;2023-03-05T18:55:44;100827.72;;;1.05
69857;BMP280;57147;53.582;10.112;2023-03-05T19:00:46;100820.94;;;1.16
69857;BMP280;57147;53.582;10.112;2023-03-05T19:05:49;100849.06;;;1.21
69857;BMP280;57147;53.582;10.112;2023-03-05T19:10:50;100886.69;;;1.38
69857;BMP280;57147;53.582;10.112;2023-03-05T19:15:51;100907.72;;;1.43
69857;BMP280;57147;53.582;10.112;2023-03-05T19:20:55;100970.94;;;1.22
69857;BMP280;57147;53.582;10.112;2023-03-05T19:25:56;101003.50;;;1.07
69857;BMP280;57147;53.582;10.112;2023-03-05T19:30:56;101010.78;;;1.24
69857;BMP280;57147;53.582;10.112;2023-03-05T19:36:00;101016.22;;;1.40
69857;BMP280;57147;53.582;10.112;2023-03-05T19:41:00;101028.16;;;1.11
69857;BMP280;57147;53.582;10.112;2023-03-05T19:46:03;101012.63;;;0.98
69857;BMP280;57147;53.582;10.112;2023-03-05T19:51:10;101019.88;;;0.96
69857;BMP280;57147;53.582;10.112;2023-03-05T19:56:11;100981.56;;;1.08
69857;BMP280;57147;53.582;10.112;2023-03-05T20:01:14;100968.75;;;1.00
69857;BMP280;57147;53.582;10.112;2023-03-05T20:06:18;100973.25;;;0.93
69857;BMP280;57147;53.582;10.112;2023-03-05T20:11:19;100952.31;;;0.93
69857;BMP280;57147;53.582;10.112;2023-03-05T20:16:21;100928.22;;;0.91
69857;BMP280;57147;53.582;10.112;2023-03-05T20:21:26;100915.72;;;0.93
69857;BMP280;57147;53.582;10.112;2023-03-05T20:26:27;100934.41;;;0.72
69857;BMP280;57147;53.582;10.112;2023-03-05T20:31:27;100844.38;;;0.68
69857;BMP280;57147;53.582;10.112;2023-03-05T20:36:31;100839.09;;;0.74
69857;BMP280;57147;53.582;10.112;2023-03-05T20:41:32;100700.31;;;1.12
69857;BMP280;57147;53.582;10.112;2023-03-05T20:46:35;100717.31;;;1.33
69857;BMP280;57147;53.582;10.112;2023-03-05T20:51:38;100706.69;;;1.17
69857;BMP280;57147;53.582;10.112;2023-03-05T20:56:39;100712.56;;;1.12
69857;BMP280;57147;53.582;10.112;2023-03-05T21:01:40;100691.38;;;1.32
69857;BMP280;57147;53.582;10.112;2023-03-05T21:06:43;100718.38;;;1.14
69857;BMP280;57147;53.582;10.112;2023-03-05T21:11:43;100673.91;;;1.02
69857;BMP280;57147;53.582;10.112;2023-03-05T21:16:44;100655.28;;;1.10
69857;BMP280;57147;53.582;10.112;2023-03-05T21:21:47;100644.63;;;1.24
69857;BMP280;57147;53.582;10.112;2023-03-05T21:26:48;100625.41;;;1.41
69857;BMP280;57147;53.582;10.112;2023-03-05T21:31:48;100629.97;;;1.23
69857;BMP280;57147;53.582;10.112;2023-03-05T21:36:52;100644.31;;;1.43
69857;BMP280;57147;53.582;10.112;2023-03-05T21:41:52;100635.75;;;1.48
69857;BMP280;57147;53.582;10.112;2023-03-05T21:46:53;100662.84;;;1.42
69857;BMP280;57147;53.582;10.112;2023-03-05T21:51:56;100664.88;;;1.52
69857;BMP280;57147;53.582;10.112;2023-03-05T21:56:57;100649.97;;;1.29
69857;BMP280;57147;53.582;10.112;2023-03-05T22:01:58;100559.03;;;1.31
69857;BMP280;57147;53.582;10.112;2023-03-05T22:07:02;100497.28;;;1.06
69857;BMP280;57147;53.582;10.112;2023-03-05T22:12:02;100548.75;;;0.94
69857;BMP280;57147;53.582;10.112;2023-03-05T22:17:03;100510.63;;;0.52
69857;BMP280;57147;53.582;10.112;2023-03-05T22:22:06;100554.44;;;0.91
69857;BMP280;57147;53.582;10.112;2023-03-05T22:27:08;100548.88;;;0.99
69857;BMP280;57147;53.582;10.112;2023-03-05T22:32:08;100550.25;;;1.25
69857;BMP280;57147;53.582;10.112;2023-03-05T22:37:12;100540.56;;;1.14
69857;BMP280;57147;53.582;10.112;2023-03-05T22:42:12;100530.25;;;1.07
69857;BMP280;57147;53.582;10.112;2023-03-05T22:47:13;100535.69;;;1.18
69857;BMP280;57147;53.582;10.112;2023-03-05T22:52:16;100488.63;;;0.94
69857;BMP280;57147;53.582;10.112;2023-03-05T22:57:17;100502.41;;;1.01
69857;BMP280;57147;53.582;10.112;2023-03-05T23:02:18;100494.44;;;0.96
69857;BMP280;57147;53.582;10.112;2023-03-05T23:07:23;100487.84;;;0.94
69857;BMP280;57147;53.582;10.112;2023-03-05T23:12:24;100451.91;;;0.77
69857;BMP280;57147;53.582;10.112;2023-03-05T23:17:25;100452.94;;;0.65
69857;BMP280;57147;53.582;10.112;2023-03-05T23:22:29;100447.03;;;0.58
69857;BMP280;57147;53.582;10.112;2023-03-05T23:27:29;100464.06;;;0.72
69857;BMP280;57147;53.582;10.112;2023-03-05T23:32:30;100476.34;;;0.83
69857;BMP280;57147;53.582;10.112;2023-03-05T23:37:33;100477.41;;;1.05
69857;BMP280;57147;53.582;10.112;2023-03-05T23:42:34;100449.75;;;0.86
69857;BMP280;57147;53.582;10.112;2023-03-05T23:47:36;100431.91;;;0.71
69857;BMP280;57147;53.582;10.112;2023-03-05T23:52:40;100448.19;;;0.85
69857;BMP280;57147;53.582;10.112;2023-03-05T23:57:41;100448.53;;;1.00
